createdAt,value
2018-06-23T00:01:34.202Z,11.80
2018-06-23T00:04:08.717Z,11.83
2018-06-23T00:06:45.625Z,11.67
2018-06-23T00:09:20.737Z,11.64
2018-06-23T00:11:55.185Z,11.77
2018-06-23T00:14:29.770Z,11.75
2018-06-23T00:17:04.235Z,11.86
2018-06-23T00:19:39.695Z,11.65
2018-06-23T00:22:14.237Z,11.66
2018-06-23T00:24:48.844Z,11.62
2018-06-23T00:27:23.364Z,11.48
2018-06-23T00:30:04.031Z,11.35
2018-06-23T00:32:38.642Z,11.23
2018-06-23T00:35:13.141Z,11.15
2018-06-23T00:37:47.959Z,11.21
2018-06-23T00:40:22.879Z,11.01
2018-06-23T00:42:57.396Z,10.96
2018-06-23T00:45:31.960Z,11.00
2018-06-23T00:48:06.520Z,10.96
2018-06-23T00:50:41.041Z,10.83
2018-06-23T00:53:15.776Z,10.85
2018-06-23T00:55:50.295Z,10.76
2018-06-23T00:58:24.776Z,10.90
2018-06-23T01:00:59.644Z,10.92
2018-06-23T01:03:34.296Z,10.88
2018-06-23T01:06:08.828Z,11.03
2018-06-23T01:08:43.368Z,10.98
2018-06-23T01:11:18.030Z,11.09
2018-06-23T01:13:53.725Z,11.12
2018-06-23T01:16:28.332Z,11.04
2018-06-23T01:22:14.616Z,10.88
2018-06-23T01:24:56.628Z,10.98
2018-06-23T01:30:31.035Z,10.61
2018-06-23T01:33:06.067Z,10.54
2018-06-23T01:35:40.756Z,10.50
2018-06-23T01:38:25.065Z,10.49
2018-06-23T01:41:00.110Z,10.57
2018-06-23T01:43:34.750Z,10.60
2018-06-23T01:46:10.104Z,10.55
2018-06-23T01:48:48.700Z,10.54
2018-06-23T01:51:23.228Z,10.48
2018-06-23T01:53:57.768Z,10.44
2018-06-23T01:56:32.205Z,10.33
2018-06-23T01:59:06.695Z,10.35
2018-06-23T02:01:41.280Z,10.39
2018-06-23T02:04:15.808Z,10.22
2018-06-23T02:06:50.289Z,10.22
2018-06-23T02:09:24.943Z,10.19
2018-06-23T02:11:59.605Z,10.07
2018-06-23T02:14:39.308Z,10.01
2018-06-23T02:17:19.487Z,10.06
2018-06-23T02:19:59.328Z,10.05
2018-06-23T02:22:39.198Z,10.06
2018-06-23T02:25:19.123Z,10.10
2018-06-23T02:27:59.368Z,10.21
2018-06-23T02:30:40.061Z,10.21
2018-06-23T02:33:20.084Z,10.12
2018-06-23T02:35:54.689Z,10.11
2018-06-23T02:38:29.217Z,10.09
2018-06-23T02:41:03.738Z,10.19
2018-06-23T02:43:38.332Z,10.12
2018-06-23T02:46:13.026Z,10.01
2018-06-23T02:48:47.557Z,10.12
2018-06-23T02:51:22.349Z,9.99
2018-06-23T02:53:56.808Z,9.99
2018-06-23T02:56:31.525Z,10.02
2018-06-23T02:59:06.537Z,10.17
2018-06-23T03:01:41.758Z,10.05
2018-06-23T03:04:16.567Z,10.02
2018-06-23T03:06:51.768Z,9.95
2018-06-23T03:09:27.680Z,10.02
2018-06-23T03:12:02.713Z,9.93
2018-06-23T03:14:37.386Z,9.85
2018-06-23T03:17:17.735Z,9.84
2018-06-23T03:19:52.417Z,9.76
2018-06-23T03:22:27.052Z,9.75
2018-06-23T03:25:01.691Z,9.74
2018-06-23T03:27:36.273Z,9.75
2018-06-23T03:30:10.843Z,9.62
2018-06-23T03:32:45.428Z,9.67
2018-06-23T03:35:20.152Z,9.72
2018-06-23T03:37:54.917Z,9.58
2018-06-23T03:40:29.543Z,9.63
2018-06-23T03:43:04.442Z,9.64
2018-06-23T03:45:39.143Z,9.74
2018-06-23T03:48:13.783Z,9.67
2018-06-23T03:50:48.445Z,9.71
2018-06-23T03:53:23.029Z,9.72
2018-06-23T03:55:57.644Z,9.91
2018-06-23T03:58:32.220Z,9.89
2018-06-23T04:01:08.697Z,9.94
2018-06-23T04:03:43.304Z,9.99
2018-06-23T04:06:18.029Z,10.01
2018-06-23T04:08:52.615Z,9.92
2018-06-23T04:11:27.260Z,9.81
2018-06-23T04:14:01.995Z,9.70
2018-06-23T04:16:36.517Z,9.68
2018-06-23T04:19:11.192Z,9.69
2018-06-23T04:21:45.756Z,9.58
2018-06-23T04:24:20.240Z,9.67
2018-06-23T04:26:54.677Z,9.79
2018-06-23T04:29:29.080Z,9.69
2018-06-23T04:32:03.574Z,9.78
2018-06-23T04:34:38.064Z,9.86
2018-06-23T04:37:12.492Z,9.86
2018-06-23T04:39:46.936Z,9.91
2018-06-23T04:42:21.429Z,10.15
2018-06-23T04:44:55.904Z,10.31
2018-06-23T04:47:30.446Z,10.40
2018-06-23T04:50:04.995Z,10.57
2018-06-23T04:52:39.461Z,10.77
2018-06-23T04:55:14.040Z,11.05
2018-06-23T04:57:48.509Z,10.82
2018-06-23T05:00:25.508Z,11.09
2018-06-23T05:02:59.994Z,10.79
2018-06-23T05:05:34.533Z,10.79
2018-06-23T05:08:09.133Z,10.95
2018-06-23T05:10:43.640Z,10.92
2018-06-23T05:13:18.136Z,10.93
2018-06-23T05:15:52.509Z,10.97
2018-06-23T05:18:27.282Z,10.93
2018-06-23T05:21:01.982Z,11.16
2018-06-23T05:23:36.661Z,11.17
2018-06-23T05:26:11.164Z,11.19
2018-06-23T05:28:45.577Z,11.24
2018-06-23T05:31:20.207Z,11.19
2018-06-23T05:33:55.091Z,11.30
2018-06-23T05:36:29.763Z,11.54
2018-06-23T05:39:06.511Z,11.67
2018-06-23T05:41:41.073Z,11.98
2018-06-23T05:44:15.868Z,11.88
2018-06-23T05:46:50.276Z,11.98
2018-06-23T05:49:24.768Z,12.04
2018-06-23T05:51:59.468Z,12.33
2018-06-23T05:54:34.052Z,12.32
2018-06-23T05:57:08.670Z,12.27
2018-06-23T05:59:43.247Z,12.02
2018-06-23T06:02:17.759Z,11.97
2018-06-23T06:04:52.480Z,11.89
2018-06-23T06:07:26.832Z,11.77
2018-06-23T06:10:01.621Z,11.79
2018-06-23T06:12:36.104Z,12.12
2018-06-23T06:15:10.502Z,12.29
2018-06-23T06:17:44.883Z,12.33
2018-06-23T06:20:19.509Z,12.20
2018-06-23T06:22:53.937Z,12.24
2018-06-23T06:25:28.485Z,12.36
2018-06-23T06:28:03.098Z,12.50
2018-06-23T06:30:37.711Z,12.61
2018-06-23T06:33:12.354Z,12.63
2018-06-23T06:35:46.976Z,12.40
2018-06-23T06:38:21.181Z,12.55
2018-06-23T06:40:55.727Z,12.52
2018-06-23T06:43:30.390Z,12.41
2018-06-23T06:46:06.046Z,12.35
2018-06-23T06:48:40.565Z,12.38
2018-06-23T06:51:15.035Z,12.35
2018-06-23T06:53:49.692Z,12.31
2018-06-23T06:56:24.767Z,12.06
2018-06-23T06:58:59.343Z,11.90
2018-06-23T07:01:34.123Z,12.05
2018-06-23T07:04:08.740Z,12.19
2018-06-23T07:06:43.248Z,11.53
2018-06-23T07:09:18.485Z,11.65
2018-06-23T07:11:53.061Z,11.64
2018-06-23T07:14:27.647Z,11.66
2018-06-23T07:17:02.347Z,11.84
2018-06-23T07:19:37.053Z,11.67
2018-06-23T07:22:11.415Z,11.42
2018-06-23T07:24:45.897Z,11.47
2018-06-23T07:27:20.871Z,11.62
2018-06-23T07:29:55.797Z,11.71
2018-06-23T07:32:30.323Z,11.84
2018-06-23T07:35:04.728Z,11.74
2018-06-23T07:37:39.103Z,11.84
2018-06-23T07:40:13.882Z,11.91
2018-06-23T07:42:48.697Z,11.85
2018-06-23T07:45:26.681Z,12.15
2018-06-23T07:48:01.312Z,12.50
2018-06-23T07:50:35.908Z,12.62
2018-06-23T07:53:12.322Z,12.84
2018-06-23T07:55:48.061Z,13.36
2018-06-23T07:58:22.911Z,13.66
2018-06-23T08:00:57.524Z,13.56
2018-06-23T08:03:35.307Z,13.20
2018-06-23T08:06:09.899Z,13.10
2018-06-23T08:08:44.565Z,13.06
2018-06-23T08:11:19.177Z,13.27
2018-06-23T08:13:53.743Z,13.57
2018-06-23T08:16:29.216Z,13.66
2018-06-23T08:19:04.336Z,13.93
2018-06-23T08:21:39.217Z,14.45
2018-06-23T08:24:14.113Z,14.54
2018-06-23T08:26:50.706Z,14.20
2018-06-23T08:29:25.836Z,14.05
2018-06-23T08:32:00.473Z,14.12
2018-06-23T08:34:35.252Z,14.77
2018-06-23T08:37:10.136Z,16.55
2018-06-23T08:39:44.709Z,16.54
2018-06-23T08:42:20.315Z,16.44
2018-06-23T08:44:54.876Z,15.83
2018-06-23T08:47:30.012Z,15.67
2018-06-23T08:50:05.313Z,15.18
2018-06-23T08:52:39.948Z,14.66
2018-06-23T08:55:14.549Z,15.11
2018-06-23T08:57:49.053Z,15.12
2018-06-23T09:00:24.515Z,14.52
2018-06-23T09:02:59.253Z,14.44
2018-06-23T09:05:33.904Z,14.33
2018-06-23T09:08:08.795Z,14.58
2018-06-23T09:10:43.770Z,14.39
2018-06-23T09:13:19.091Z,14.62
2018-06-23T09:15:53.911Z,14.56
2018-06-23T09:18:28.595Z,14.13
2018-06-23T09:21:03.192Z,14.98
2018-06-23T09:23:38.016Z,16.17
2018-06-23T09:26:12.659Z,16.71
2018-06-23T09:28:47.343Z,18.67
2018-06-23T09:31:21.873Z,20.17
2018-06-23T09:33:56.505Z,21.13
2018-06-23T09:36:31.380Z,19.33
2018-06-23T09:39:08.261Z,19.33
2018-06-23T09:41:42.860Z,18.58
2018-06-23T09:44:17.621Z,18.11
2018-06-23T09:46:52.704Z,17.75
2018-06-23T09:49:27.189Z,16.55
2018-06-23T09:52:01.822Z,16.09
2018-06-23T09:54:36.615Z,15.70
2018-06-23T09:57:11.288Z,15.56
2018-06-23T09:59:45.852Z,15.72
2018-06-23T10:02:20.563Z,15.82
2018-06-23T10:04:55.089Z,16.09
2018-06-23T10:07:29.636Z,15.93
2018-06-23T10:10:04.154Z,15.87
2018-06-23T10:12:38.853Z,15.51
2018-06-23T10:15:13.559Z,15.46
2018-06-23T10:17:48.192Z,15.68
2018-06-23T10:20:22.734Z,15.48
2018-06-23T10:22:57.406Z,14.77
2018-06-23T10:25:32.120Z,15.00
2018-06-23T10:28:06.644Z,14.82
2018-06-23T10:30:41.060Z,14.58
2018-06-23T10:33:15.509Z,14.62
2018-06-23T10:35:50.195Z,14.40
2018-06-23T10:38:24.929Z,14.69
2018-06-23T10:40:59.572Z,14.47
2018-06-23T10:43:34.043Z,14.48
2018-06-23T10:46:08.564Z,14.54
2018-06-23T10:48:43.201Z,14.90
2018-06-23T10:51:17.834Z,15.25
2018-06-23T10:53:53.304Z,15.10
2018-06-23T10:56:27.800Z,15.02
2018-06-23T10:59:02.514Z,15.33
2018-06-23T11:01:37.448Z,15.17
2018-06-23T11:04:11.980Z,15.39
2018-06-23T11:06:46.864Z,15.72
2018-06-23T11:09:21.982Z,15.08
2018-06-23T11:11:56.589Z,14.68
2018-06-23T11:14:31.097Z,14.39
2018-06-23T11:17:05.697Z,14.26
2018-06-23T11:19:40.384Z,14.72
2018-06-23T11:22:15.255Z,14.43
2018-06-23T11:24:50.000Z,14.96
2018-06-23T11:27:24.476Z,15.02
2018-06-23T11:29:59.113Z,15.28
2018-06-23T11:32:33.693Z,15.35
2018-06-23T11:35:08.305Z,15.62
2018-06-23T11:37:42.993Z,15.73
2018-06-23T11:40:17.533Z,16.01
2018-06-23T11:42:52.090Z,16.23
2018-06-23T11:45:26.626Z,16.22
2018-06-23T11:48:01.112Z,16.03
2018-06-23T11:50:35.616Z,16.31
2018-06-23T11:53:11.301Z,16.25
2018-06-23T11:55:46.358Z,16.59
2018-06-23T11:58:21.472Z,16.44
2018-06-23T12:00:56.165Z,16.50
2018-06-23T12:03:30.938Z,16.80
2018-06-23T12:06:05.596Z,17.21
2018-06-23T12:08:40.129Z,17.59
2018-06-23T12:11:14.574Z,17.51
2018-06-23T12:13:49.165Z,17.07
2018-06-23T12:16:24.183Z,17.30
2018-06-23T12:18:59.417Z,17.66
2018-06-23T12:21:34.028Z,17.34
2018-06-23T12:24:08.887Z,18.15
2018-06-23T12:26:43.540Z,17.28
2018-06-23T12:29:18.174Z,17.91
2018-06-23T12:31:52.733Z,17.49
2018-06-23T12:34:27.455Z,17.37
2018-06-23T12:37:01.953Z,17.67
2018-06-23T12:39:36.408Z,17.41
2018-06-23T12:42:10.900Z,17.43
2018-06-23T12:44:45.621Z,17.06
2018-06-23T12:47:20.296Z,17.30
2018-06-23T12:49:54.828Z,16.85
2018-06-23T12:52:29.167Z,17.20
2018-06-23T12:55:03.669Z,17.34
2018-06-23T12:57:38.272Z,17.71
2018-06-23T13:00:12.836Z,17.85
2018-06-23T13:02:47.264Z,18.31
2018-06-23T13:05:21.734Z,18.59
2018-06-23T13:07:56.244Z,18.73
2018-06-23T13:10:30.869Z,18.39
2018-06-23T13:13:05.720Z,18.09
2018-06-23T13:15:40.107Z,18.51
2018-06-23T13:18:14.626Z,18.54
2018-06-23T13:20:49.317Z,17.51
2018-06-23T13:23:23.934Z,18.22
2018-06-23T13:25:58.423Z,18.04
2018-06-23T13:28:32.994Z,17.51
2018-06-23T13:31:07.733Z,17.13
2018-06-23T13:33:42.300Z,18.04
2018-06-23T13:36:16.928Z,18.60
2018-06-23T13:38:51.492Z,18.91
2018-06-23T13:41:25.969Z,18.65
2018-06-23T13:44:00.602Z,19.31
2018-06-23T13:46:35.173Z,19.36
2018-06-23T13:49:09.752Z,19.62
2018-06-23T13:51:44.657Z,19.27
2018-06-23T13:54:23.030Z,19.42
2018-06-23T13:56:58.124Z,19.69
2018-06-23T13:59:32.940Z,19.73
2018-06-23T14:02:07.604Z,19.66
2018-06-23T14:04:42.073Z,19.47
2018-06-23T14:07:16.613Z,18.77
2018-06-23T14:09:52.270Z,18.46
2018-06-23T14:12:27.091Z,18.34
2018-06-23T14:15:01.609Z,18.12
2018-06-23T14:17:36.101Z,18.06
2018-06-23T14:20:10.689Z,17.52
2018-06-23T14:22:45.128Z,17.06
2018-06-23T14:25:19.478Z,17.18
2018-06-23T14:27:54.049Z,17.17
2018-06-23T14:30:28.847Z,17.52
2018-06-23T14:33:03.500Z,17.54
2018-06-23T14:35:37.964Z,17.59
2018-06-23T14:38:12.412Z,17.68
2018-06-23T14:40:47.529Z,17.47
2018-06-23T14:43:22.117Z,17.37
2018-06-23T14:45:56.653Z,17.54
2018-06-23T14:48:31.221Z,17.51
2018-06-23T14:51:05.811Z,17.43
2018-06-23T14:53:40.428Z,17.83
2018-06-23T14:56:15.062Z,17.33
2018-06-23T14:58:49.805Z,17.30
2018-06-23T15:01:24.377Z,17.00
2018-06-23T15:03:58.831Z,16.85
2018-06-23T15:06:33.217Z,17.17
2018-06-23T15:09:19.080Z,17.94
2018-06-23T15:12:04.791Z,18.91
2018-06-23T15:14:39.272Z,18.82
2018-06-23T15:17:13.848Z,18.99
2018-06-23T15:19:48.257Z,18.27
2018-06-23T15:22:22.705Z,18.41
2018-06-23T15:24:57.253Z,18.34
2018-06-23T15:27:31.863Z,18.38
2018-06-23T15:30:06.621Z,18.21
2018-06-23T15:32:41.174Z,17.97
2018-06-23T15:35:15.925Z,17.57
2018-06-23T15:37:50.861Z,17.49
2018-06-23T15:40:25.350Z,17.23
2018-06-23T15:42:59.822Z,17.25
2018-06-23T15:45:34.513Z,17.42
2018-06-23T15:48:08.937Z,17.31
2018-06-23T15:50:44.116Z,17.47
2018-06-23T15:53:18.777Z,17.47
2018-06-23T15:55:53.556Z,17.80
2018-06-23T15:58:28.100Z,18.18
2018-06-23T16:01:02.617Z,18.04
2018-06-23T16:03:37.222Z,18.29
2018-06-23T16:06:11.989Z,18.40
2018-06-23T16:08:46.460Z,18.26
2018-06-23T16:11:21.112Z,18.20
2018-06-23T16:13:56.058Z,18.31
2018-06-23T16:16:31.936Z,18.33
2018-06-23T16:19:07.690Z,18.12
2018-06-23T16:21:42.261Z,18.24
2018-06-23T16:24:16.816Z,18.27
2018-06-23T16:29:26.152Z,18.67
2018-06-23T16:32:00.665Z,18.38
2018-06-23T16:34:35.140Z,18.50
2018-06-23T16:37:09.472Z,18.25
2018-06-23T16:39:44.025Z,18.26
2018-06-23T16:42:18.665Z,18.25
2018-06-23T16:44:53.268Z,18.33
2018-06-23T16:47:27.991Z,18.68
2018-06-23T16:50:02.806Z,18.78
2018-06-23T16:52:37.487Z,19.02
2018-06-23T16:55:11.968Z,18.70
2018-06-23T16:57:46.433Z,18.43
2018-06-23T17:00:21.109Z,18.42
2018-06-23T17:02:55.626Z,17.99
2018-06-23T17:05:30.292Z,17.89
2018-06-23T17:08:04.916Z,17.71
2018-06-23T17:10:39.747Z,17.43
2018-06-23T17:13:14.942Z,17.31
2018-06-23T17:15:49.524Z,17.54
2018-06-23T17:18:26.112Z,17.51
2018-06-23T17:21:01.089Z,17.53
2018-06-23T17:23:35.729Z,17.68
2018-06-23T17:26:10.252Z,17.59
2018-06-23T17:28:44.900Z,17.43
2018-06-23T17:31:19.567Z,17.35
2018-06-23T17:33:55.012Z,17.14
2018-06-23T17:36:29.534Z,17.31
2018-06-23T17:39:04.921Z,17.18
2018-06-23T17:41:39.628Z,17.20
2018-06-23T17:44:14.321Z,17.09
2018-06-23T17:46:48.879Z,17.20
2018-06-23T17:49:23.537Z,17.50
2018-06-23T17:51:58.072Z,17.39
2018-06-23T17:54:32.638Z,17.54
2018-06-23T17:57:07.337Z,17.57
2018-06-23T17:59:41.900Z,17.65
2018-06-23T18:02:16.632Z,17.97
2018-06-23T18:04:51.348Z,17.78
2018-06-23T18:07:25.970Z,17.80
2018-06-23T18:10:00.633Z,17.71
2018-06-23T18:12:35.365Z,17.63
2018-06-23T18:15:10.073Z,17.48
2018-06-23T18:17:44.758Z,17.26
2018-06-23T18:20:19.393Z,17.39
2018-06-23T18:22:54.011Z,17.32
2018-06-23T18:25:28.702Z,17.30
2018-06-23T18:28:03.253Z,17.60
2018-06-23T18:30:37.827Z,17.32
2018-06-23T18:33:12.516Z,17.46
2018-06-23T18:35:47.071Z,17.52
2018-06-23T18:38:21.610Z,17.22
2018-06-23T18:40:56.177Z,17.12
2018-06-23T18:43:30.713Z,16.96
2018-06-23T18:46:05.410Z,16.96
2018-06-23T18:48:39.967Z,16.74
2018-06-23T18:51:14.649Z,16.72
2018-06-23T18:53:51.026Z,16.65
2018-06-23T18:56:25.905Z,16.38
2018-06-23T18:59:00.699Z,16.38
2018-06-23T19:01:35.419Z,16.31
2018-06-23T19:04:10.025Z,16.27
2018-06-23T19:06:44.671Z,16.22
2018-06-23T19:09:19.556Z,16.18
2018-06-23T19:11:54.124Z,16.09
2018-06-23T19:14:28.815Z,16.00
2018-06-23T19:17:03.538Z,16.02
2018-06-23T19:19:38.092Z,16.02
2018-06-23T19:22:12.725Z,16.00
2018-06-23T19:24:47.273Z,15.98
2018-06-23T19:27:21.888Z,15.88
2018-06-23T19:29:56.457Z,15.70
2018-06-23T19:32:31.803Z,15.49
2018-06-23T19:35:06.542Z,15.31
2018-06-23T19:37:41.013Z,15.20
2018-06-23T19:40:15.774Z,15.06
2018-06-23T19:42:50.225Z,15.02
2018-06-23T19:45:24.748Z,14.93
2018-06-23T19:47:59.505Z,14.84
2018-06-23T19:50:34.136Z,14.74
2018-06-23T19:53:08.636Z,14.63
2018-06-23T19:55:43.283Z,14.62
2018-06-23T19:58:17.855Z,14.50
2018-06-23T20:00:52.369Z,14.47
2018-06-23T20:03:27.042Z,14.40
2018-06-23T20:06:01.861Z,14.36
2018-06-23T20:08:36.361Z,14.27
2018-06-23T20:11:10.960Z,14.28
2018-06-23T20:13:45.522Z,14.28
2018-06-23T20:16:20.314Z,14.18
2018-06-23T20:18:55.660Z,14.13
2018-06-23T20:21:30.457Z,14.12
2018-06-23T20:24:05.144Z,14.08
2018-06-23T20:26:39.654Z,14.04
2018-06-23T20:29:14.108Z,13.98
2018-06-23T20:31:48.364Z,13.93
2018-06-23T20:34:22.718Z,13.89
2018-06-23T20:37:01.399Z,13.89
2018-06-23T20:39:35.927Z,13.86
2018-06-23T20:42:10.276Z,13.82
2018-06-23T20:44:44.748Z,13.74
2018-06-23T20:47:19.411Z,13.72
2018-06-23T20:49:53.815Z,13.74
2018-06-23T20:52:28.349Z,13.77
2018-06-23T20:55:02.957Z,13.74
2018-06-23T20:57:38.292Z,13.78
2018-06-23T21:00:12.932Z,13.65
2018-06-23T21:02:48.656Z,13.74
2018-06-23T21:05:23.628Z,13.82
2018-06-23T21:07:58.118Z,13.81
2018-06-23T21:10:45.511Z,13.84
2018-06-23T21:13:20.072Z,13.81
2018-06-23T21:15:54.568Z,13.80
2018-06-23T21:18:29.156Z,13.83
2018-06-23T21:21:03.851Z,13.82
2018-06-23T21:23:38.420Z,13.80
2018-06-23T21:26:12.818Z,13.79
2018-06-23T21:28:47.264Z,13.78
2018-06-23T21:31:22.420Z,13.74
2018-06-23T21:33:57.036Z,13.69
2018-06-23T21:36:31.500Z,13.73
2018-06-23T21:39:07.383Z,13.77
2018-06-23T21:41:41.853Z,13.79
2018-06-23T21:44:16.180Z,13.85
2018-06-23T21:46:50.471Z,13.88
2018-06-23T21:49:24.896Z,13.86
2018-06-23T21:51:59.320Z,13.90
2018-06-23T21:54:33.571Z,13.94
2018-06-23T21:57:07.951Z,14.05
2018-06-23T21:59:42.387Z,14.01
2018-06-23T22:02:16.802Z,13.95
2018-06-23T22:04:51.228Z,13.96
2018-06-23T22:07:25.612Z,13.95
2018-06-23T22:10:00.033Z,14.05
2018-06-23T22:12:34.392Z,14.06
2018-06-23T22:15:08.956Z,14.09
2018-06-23T22:17:46.965Z,14.12
2018-06-23T22:20:21.387Z,14.10
2018-06-23T22:22:56.567Z,14.04
2018-06-23T22:25:31.118Z,14.03
2018-06-23T22:28:05.706Z,14.08
2018-06-23T22:30:40.223Z,14.05
2018-06-23T22:33:14.695Z,14.08
2018-06-23T22:35:50.195Z,14.09
2018-06-23T22:38:24.725Z,14.07
2018-06-23T22:40:59.907Z,14.06
2018-06-23T22:43:34.310Z,14.07
2018-06-23T22:46:08.672Z,13.97
2018-06-23T22:48:43.131Z,13.95
2018-06-23T22:51:17.831Z,13.95
2018-06-23T22:53:52.216Z,13.94
2018-06-23T22:56:26.777Z,13.85
2018-06-23T22:59:01.348Z,13.81
2018-06-23T23:01:36.138Z,13.88
2018-06-23T23:04:10.689Z,13.93
2018-06-23T23:06:46.505Z,13.98
2018-06-23T23:09:22.092Z,13.82
2018-06-23T23:11:56.585Z,13.85
2018-06-23T23:14:31.106Z,14.05
2018-06-23T23:17:05.729Z,14.08
2018-06-23T23:19:40.360Z,14.22
2018-06-23T23:22:14.864Z,14.18
2018-06-23T23:24:49.461Z,14.18
2018-06-23T23:27:24.093Z,14.22
2018-06-23T23:29:58.544Z,14.25
2018-06-23T23:32:33.170Z,14.27
2018-06-23T23:35:07.677Z,14.30
2018-06-23T23:37:42.513Z,14.25
2018-06-23T23:40:17.616Z,14.13
2018-06-23T23:42:52.304Z,14.06
2018-06-23T23:45:26.810Z,14.01
2018-06-23T23:48:01.568Z,13.97
2018-06-23T23:50:35.936Z,13.91
2018-06-23T23:53:10.383Z,13.88
2018-06-23T23:55:44.967Z,13.63
2018-06-23T23:58:19.524Z,13.57
